createdAt,value
2023-02-23T00:02:16.603Z,3.97
2023-02-23T00:05:22.202Z,4.85
2023-02-23T00:08:30.380Z,4.75
2023-02-23T00:11:36.860Z,3.97
2023-02-23T00:14:44.015Z,3.28
2023-02-23T00:17:51.952Z,4.35
2023-02-23T00:21:00.581Z,4.47
2023-02-23T00:24:10.435Z,5.25
2023-02-23T00:27:19.052Z,3.65
2023-02-23T00:30:25.489Z,3.72
2023-02-23T00:33:30.671Z,4.88
2023-02-23T00:36:37.755Z,5.15
2023-02-23T00:39:46.234Z,5.38
2023-02-23T00:42:53.086Z,4.20
2023-02-23T00:45:58.431Z,5.15
2023-02-23T00:49:05.508Z,5.13
2023-02-23T00:52:10.625Z,4.75
2023-02-23T00:55:19.136Z,4.60
2023-02-23T00:58:24.156Z,4.57
2023-02-23T01:01:31.364Z,5.00
2023-02-23T01:04:36.296Z,4.03
2023-02-23T01:07:41.811Z,5.35
2023-02-23T01:10:53.377Z,4.47
2023-02-23T01:13:59.567Z,4.83
2023-02-23T01:17:04.602Z,4.70
2023-02-23T01:20:18.215Z,4.85
2023-02-23T01:23:23.122Z,4.93
2023-02-23T01:26:34.204Z,4.70
2023-02-23T01:29:39.116Z,4.90
2023-02-23T01:32:44.556Z,4.75
2023-02-23T01:35:59.676Z,5.05
2023-02-23T01:39:07.985Z,5.53
2023-02-23T01:42:16.939Z,4.63
2023-02-23T01:45:35.223Z,4.22
2023-02-23T01:48:41.997Z,4.68
2023-02-23T01:51:50.092Z,4.93
2023-02-23T01:54:56.595Z,4.88
2023-02-23T01:58:07.258Z,4.93
2023-02-23T02:01:16.569Z,5.25
2023-02-23T02:04:22.450Z,5.25
2023-02-23T02:07:29.708Z,5.15
2023-02-23T02:10:47.656Z,5.28
2023-02-23T02:13:55.757Z,5.03
2023-02-23T02:17:06.422Z,4.63
2023-02-23T02:20:33.133Z,5.05
2023-02-23T02:23:57.248Z,4.55
2023-02-23T02:27:10.748Z,4.55
2023-02-23T02:30:34.494Z,5.40
2023-02-23T02:33:55.958Z,5.57
2023-02-23T02:37:16.048Z,6.22
2023-02-23T02:40:28.530Z,5.07
2023-02-23T02:46:43.164Z,4.95
2023-02-23T02:49:55.718Z,5.80
2023-02-23T02:53:02.413Z,4.53
2023-02-23T02:56:12.697Z,4.70
2023-02-23T02:59:31.115Z,5.95
2023-02-23T03:02:49.987Z,5.25
2023-02-23T03:06:08.214Z,5.30
2023-02-23T03:09:31.622Z,5.93
2023-02-23T03:16:15.667Z,5.22
2023-02-23T03:19:35.387Z,4.97
2023-02-23T03:22:55.286Z,5.25
2023-02-23T03:26:17.501Z,4.60
2023-02-23T03:29:40.143Z,5.45
2023-02-23T03:33:02.596Z,5.13
2023-02-23T03:36:21.834Z,4.78
2023-02-23T03:39:41.721Z,4.13
2023-02-23T03:43:00.097Z,4.20
2023-02-23T03:46:18.530Z,5.57
2023-02-23T03:49:41.823Z,5.53
2023-02-23T03:53:01.616Z,5.47
2023-02-23T03:56:19.415Z,4.95
2023-02-23T03:59:41.115Z,5.30
2023-02-23T04:03:00.464Z,5.45
2023-02-23T04:06:22.784Z,5.55
2023-02-23T04:09:41.002Z,5.35
2023-02-23T04:13:01.843Z,4.47
2023-02-23T04:16:05.773Z,5.45
2023-02-23T04:19:10.994Z,4.68
2023-02-23T04:22:19.273Z,5.53
2023-02-23T04:25:27.278Z,5.13
2023-02-23T04:31:41.912Z,5.80
2023-02-23T04:34:47.555Z,5.97
2023-02-23T04:37:55.913Z,5.97
2023-02-23T04:41:01.399Z,5.75
2023-02-23T04:44:06.772Z,5.78
2023-02-23T04:47:12.025Z,5.57
2023-02-23T04:50:17.341Z,6.43
2023-02-23T04:53:27.276Z,5.57
2023-02-23T04:56:32.448Z,5.90
2023-02-23T04:59:37.797Z,5.78
2023-02-23T05:02:42.923Z,6.28
2023-02-23T05:05:48.646Z,5.30
2023-02-23T05:08:56.243Z,4.93
2023-02-23T05:12:01.966Z,5.78
2023-02-23T05:15:07.841Z,6.50
2023-02-23T05:18:13.847Z,6.65
2023-02-23T05:21:19.031Z,6.88
2023-02-23T05:24:27.805Z,6.35
2023-02-23T05:27:32.745Z,6.47
2023-02-23T05:30:38.395Z,6.25
2023-02-23T05:33:44.084Z,5.80
2023-02-23T05:36:49.425Z,6.65
2023-02-23T05:39:57.452Z,6.57
2023-02-23T05:43:03.474Z,6.60
2023-02-23T05:46:09.329Z,6.25
2023-02-23T05:49:17.155Z,6.22
2023-02-23T05:52:22.127Z,6.35
2023-02-23T05:55:32.286Z,7.03
2023-02-23T05:58:37.718Z,7.35
2023-02-23T06:01:43.167Z,5.22
2023-02-23T06:04:48.311Z,7.32
2023-02-23T06:07:55.424Z,6.13
2023-02-23T06:11:04.656Z,6.10
2023-02-23T06:14:10.246Z,6.55
2023-02-23T06:17:15.471Z,6.70
2023-02-23T06:20:20.944Z,5.93
2023-02-23T06:23:26.202Z,7.20
2023-02-23T06:26:35.452Z,6.25
2023-02-23T06:29:42.412Z,6.63
2023-02-23T06:32:47.867Z,6.70
2023-02-23T06:35:52.787Z,6.72
2023-02-23T06:38:59.263Z,6.68
2023-02-23T06:42:06.750Z,7.13
2023-02-23T06:45:13.663Z,5.57
2023-02-23T06:48:21.049Z,7.55
2023-02-23T06:51:26.780Z,6.85
2023-02-23T06:54:31.915Z,8.27
2023-02-23T06:57:40.137Z,7.65
2023-02-23T07:00:45.876Z,7.57
2023-02-23T07:03:54.442Z,6.70
2023-02-23T07:06:59.472Z,9.30
2023-02-23T07:10:06.423Z,7.15
2023-02-23T07:13:14.343Z,6.20
2023-02-23T07:16:19.732Z,8.43
2023-02-23T07:19:24.582Z,7.80
2023-02-23T07:22:30.627Z,7.15
2023-02-23T07:25:35.854Z,8.23
2023-02-23T07:28:44.309Z,6.32
2023-02-23T07:31:52.355Z,8.23
2023-02-23T07:34:59.980Z,7.03
2023-02-23T07:38:07.584Z,7.65
2023-02-23T07:41:13.281Z,7.50
2023-02-23T07:44:21.041Z,6.90
2023-02-23T07:47:31.247Z,7.43
2023-02-23T07:50:38.644Z,7.90
2023-02-23T07:53:44.627Z,7.28
2023-02-23T07:56:49.828Z,7.72
2023-02-23T07:59:58.231Z,7.72
2023-02-23T08:03:04.086Z,6.95
2023-02-23T08:06:09.539Z,8.77
2023-02-23T08:09:14.754Z,8.68
2023-02-23T08:12:20.153Z,7.28
2023-02-23T08:15:28.113Z,6.35
2023-02-23T08:18:34.541Z,7.07
2023-02-23T08:21:40.521Z,8.88
2023-02-23T08:24:47.509Z,7.63
2023-02-23T08:27:53.319Z,7.82
2023-02-23T08:31:04.453Z,9.13
2023-02-23T08:34:10.452Z,8.90
2023-02-23T08:37:15.726Z,7.65
2023-02-23T08:40:26.285Z,6.57
2023-02-23T08:43:31.895Z,9.40
2023-02-23T08:46:39.855Z,8.40
2023-02-23T08:49:45.481Z,10.25
2023-02-23T08:52:50.674Z,8.80
2023-02-23T08:55:58.724Z,7.80
2023-02-23T08:59:03.630Z,7.45
2023-02-23T09:02:14.635Z,9.93
2023-02-23T09:05:20.528Z,8.77
2023-02-23T09:08:26.947Z,9.25
2023-02-23T09:11:31.791Z,11.25
2023-02-23T09:14:40.794Z,8.10
2023-02-23T09:17:48.396Z,9.80
2023-02-23T09:20:53.893Z,8.40
2023-02-23T09:23:59.270Z,10.60
2023-02-23T09:27:07.495Z,10.13
2023-02-23T09:30:18.052Z,9.68
2023-02-23T09:33:27.168Z,8.93
2023-02-23T09:36:33.326Z,9.23
2023-02-23T09:39:39.223Z,9.90
2023-02-23T09:42:46.624Z,10.05
2023-02-23T09:45:56.139Z,10.40
2023-02-23T09:49:04.665Z,10.48
2023-02-23T09:52:16.003Z,9.57
2023-02-23T09:55:21.490Z,9.48
2023-02-23T09:58:29.175Z,10.35
2023-02-23T10:01:51.692Z,10.82
2023-02-23T10:08:09.269Z,9.85
2023-02-23T10:11:19.559Z,9.95
2023-02-23T10:14:32.393Z,10.05
2023-02-23T10:17:42.088Z,8.52
2023-02-23T10:20:51.128Z,8.00
2023-02-23T10:24:01.770Z,8.20
2023-02-23T10:27:10.462Z,10.63
2023-02-23T10:30:21.661Z,10.48
2023-02-23T10:33:32.051Z,10.02
2023-02-23T10:36:39.543Z,10.93
2023-02-23T10:39:50.083Z,10.50
2023-02-23T10:42:55.724Z,10.35
2023-02-23T10:46:00.961Z,9.80
2023-02-23T10:49:07.716Z,10.27
2023-02-23T10:52:14.345Z,10.13
2023-02-23T10:55:30.466Z,8.13
2023-02-23T10:58:42.816Z,9.85
2023-02-23T11:05:08.644Z,10.10
2023-02-23T11:08:26.024Z,9.75
2023-02-23T11:11:36.499Z,10.18
2023-02-23T11:14:42.702Z,9.77
2023-02-23T11:17:48.024Z,9.82
2023-02-23T11:20:55.050Z,11.00
2023-02-23T11:24:01.316Z,9.75
2023-02-23T11:27:10.825Z,10.05
2023-02-23T11:30:16.690Z,10.05
2023-02-23T11:33:25.607Z,11.02
2023-02-23T11:36:31.502Z,10.48
2023-02-23T11:39:40.877Z,10.57
2023-02-23T11:42:56.216Z,11.88
2023-02-23T11:46:04.248Z,12.80
2023-02-23T11:49:10.371Z,11.13
2023-02-23T11:52:20.629Z,10.27
2023-02-23T11:55:26.033Z,9.73
2023-02-23T11:58:39.330Z,10.73
2023-02-23T12:01:47.633Z,11.10
2023-02-23T12:04:53.833Z,11.07
2023-02-23T12:08:01.628Z,10.13
2023-02-23T12:11:08.679Z,11.48
2023-02-23T12:14:25.298Z,10.52
2023-02-23T12:17:33.036Z,10.02
2023-02-23T12:20:40.757Z,10.98
2023-02-23T12:23:50.438Z,10.52
2023-02-23T12:27:00.037Z,11.70
2023-02-23T12:30:15.478Z,10.35
2023-02-23T12:33:22.045Z,10.60
2023-02-23T12:36:35.650Z,12.10
2023-02-23T12:39:43.442Z,11.30
2023-02-23T12:42:52.559Z,12.07
2023-02-23T12:46:08.471Z,11.65
2023-02-23T12:49:20.714Z,10.60
2023-02-23T12:52:28.862Z,9.95
2023-02-23T12:55:38.782Z,11.30
2023-02-23T12:58:48.523Z,11.73
2023-02-23T13:02:00.998Z,10.90
2023-02-23T13:05:16.168Z,12.02
2023-02-23T13:08:25.820Z,12.23
2023-02-23T13:11:45.828Z,12.05
2023-02-23T13:14:56.036Z,12.18
2023-02-23T13:18:08.158Z,11.70
2023-02-23T13:21:20.935Z,10.88
2023-02-23T13:24:27.473Z,13.55
2023-02-23T13:27:39.415Z,12.85
2023-02-23T13:30:48.194Z,10.52
2023-02-23T13:33:57.630Z,14.23
2023-02-23T13:37:03.804Z,12.57
2023-02-23T13:40:18.981Z,12.25
2023-02-23T13:43:30.188Z,12.20
2023-02-23T13:46:43.305Z,13.30
2023-02-23T13:49:54.449Z,11.63
2023-02-23T13:53:05.363Z,14.40
2023-02-23T13:56:11.761Z,12.30
2023-02-23T13:59:19.684Z,12.85
2023-02-23T14:02:39.399Z,11.75
2023-02-23T14:05:48.427Z,13.10
2023-02-23T14:08:55.387Z,13.25
2023-02-23T14:12:05.946Z,13.80
2023-02-23T14:15:25.873Z,12.45
2023-02-23T14:18:32.628Z,12.77
2023-02-23T14:21:47.278Z,11.40
2023-02-23T14:25:25.529Z,12.82
2023-02-23T14:28:37.128Z,13.02
2023-02-23T14:31:55.695Z,11.60
2023-02-23T14:35:01.809Z,12.88
2023-02-23T14:38:13.426Z,12.43
2023-02-23T14:41:23.549Z,12.82
2023-02-23T14:44:31.476Z,12.52
2023-02-23T14:47:44.440Z,12.93
2023-02-23T14:50:52.633Z,12.73
2023-02-23T14:54:03.724Z,12.52
2023-02-23T14:57:09.962Z,13.40
2023-02-23T15:00:23.330Z,12.73
2023-02-23T15:03:29.379Z,14.18
2023-02-23T15:06:34.243Z,13.80
2023-02-23T15:09:43.986Z,14.18
2023-02-23T15:12:49.606Z,15.25
2023-02-23T15:15:55.206Z,15.52
2023-02-23T15:19:01.884Z,14.73
2023-02-23T15:22:08.781Z,16.45
2023-02-23T15:25:20.498Z,17.63
2023-02-23T15:28:30.353Z,15.90
2023-02-23T15:31:36.954Z,18.15
2023-02-23T15:34:42.343Z,19.95
2023-02-23T15:37:55.244Z,19.75
2023-02-23T15:41:18.567Z,18.35
2023-02-23T15:44:27.512Z,15.25
2023-02-23T15:47:36.907Z,18.85
2023-02-23T15:50:44.248Z,18.85
2023-02-23T15:53:49.973Z,19.63
2023-02-23T15:56:59.047Z,20.25
2023-02-23T16:00:12.204Z,20.15
2023-02-23T16:03:29.861Z,20.13
2023-02-23T16:06:37.663Z,21.13
2023-02-23T16:09:43.037Z,17.58
2023-02-23T16:12:56.746Z,19.17
2023-02-23T16:16:02.398Z,19.73
2023-02-23T16:19:07.775Z,20.50
2023-02-23T16:22:21.931Z,20.02
2023-02-23T16:25:28.918Z,18.08
2023-02-23T16:28:36.961Z,18.85
2023-02-23T16:31:46.172Z,19.90
2023-02-23T16:34:52.545Z,20.02
2023-02-23T16:38:02.702Z,20.95
2023-02-23T16:41:08.351Z,19.23
2023-02-23T16:44:18.485Z,21.92
2023-02-23T16:47:36.590Z,22.48
2023-02-23T16:50:45.943Z,20.05
2023-02-23T16:53:52.574Z,19.30
2023-02-23T16:56:59.729Z,22.75
2023-02-23T17:00:14.641Z,22.42
2023-02-23T17:03:22.462Z,22.33
2023-02-23T17:06:27.651Z,20.33
2023-02-23T17:09:33.789Z,23.70
2023-02-23T17:12:38.621Z,24.23
2023-02-23T17:15:50.760Z,20.08
2023-02-23T17:18:55.937Z,22.55
2023-02-23T17:22:01.936Z,23.92
2023-02-23T17:25:07.705Z,21.20
2023-02-23T17:28:13.365Z,20.02
2023-02-23T17:31:25.480Z,22.88
2023-02-23T17:34:35.001Z,22.90
2023-02-23T17:37:40.493Z,22.40
2023-02-23T17:40:46.170Z,18.20
2023-02-23T17:43:51.053Z,22.17
2023-02-23T17:46:59.344Z,23.73
2023-02-23T17:50:06.003Z,20.83
2023-02-23T17:53:11.287Z,20.73
2023-02-23T17:56:18.020Z,24.25
2023-02-23T17:59:25.860Z,25.60
2023-02-23T18:02:33.346Z,23.58
2023-02-23T18:05:42.768Z,23.77
2023-02-23T18:08:50.708Z,20.92
2023-02-23T18:11:56.582Z,25.95
2023-02-23T18:15:02.455Z,24.27
2023-02-23T18:18:11.389Z,24.98
2023-02-23T18:21:17.141Z,25.95
2023-02-23T18:24:22.859Z,24.00
2023-02-23T18:27:30.585Z,24.58
2023-02-23T18:30:37.644Z,22.85
2023-02-23T18:33:45.645Z,25.80
2023-02-23T18:36:52.999Z,24.75
2023-02-23T18:39:59.473Z,25.48
2023-02-23T18:43:04.972Z,23.98
2023-02-23T18:46:10.762Z,22.42
2023-02-23T18:49:19.908Z,24.83
2023-02-23T18:52:27.345Z,25.25
2023-02-23T18:55:33.002Z,25.38
2023-02-23T18:58:38.577Z,24.52
2023-02-23T19:01:45.557Z,23.23
2023-02-23T19:04:53.637Z,23.45
2023-02-23T19:08:02.437Z,25.33
2023-02-23T19:11:07.610Z,25.58
2023-02-23T19:14:16.333Z,26.08
2023-02-23T19:17:23.031Z,25.95
2023-02-23T19:20:38.772Z,25.17
2023-02-23T19:23:51.691Z,24.58
2023-02-23T19:26:59.716Z,27.70
2023-02-23T19:30:04.787Z,25.35
2023-02-23T19:33:12.256Z,25.45
2023-02-23T19:36:24.625Z,24.40
2023-02-23T19:39:30.908Z,21.95
2023-02-23T19:42:37.202Z,25.88
2023-02-23T19:45:46.441Z,24.15
2023-02-23T19:48:53.796Z,19.98
2023-02-23T19:52:02.804Z,22.98
2023-02-23T19:55:08.288Z,25.02
2023-02-23T19:58:16.915Z,24.58
2023-02-23T20:01:24.814Z,24.80
2023-02-23T20:04:32.744Z,24.27
2023-02-23T20:07:40.325Z,25.05
2023-02-23T20:10:45.918Z,25.30
2023-02-23T20:13:51.033Z,23.90
2023-02-23T20:16:56.719Z,22.45
2023-02-23T20:20:01.994Z,23.38
2023-02-23T20:23:10.005Z,23.20
2023-02-23T20:26:16.509Z,23.83
2023-02-23T20:29:24.837Z,21.67
2023-02-23T20:32:32.395Z,24.05
2023-02-23T20:35:38.121Z,23.05
2023-02-23T20:38:45.670Z,23.73
2023-02-23T20:41:53.757Z,24.88
2023-02-23T20:44:58.942Z,23.95
2023-02-23T20:48:04.924Z,21.90
2023-02-23T20:51:13.237Z,27.23
2023-02-23T20:54:22.262Z,24.02
2023-02-23T20:57:27.382Z,24.20
2023-02-23T21:00:34.905Z,24.77
2023-02-23T21:03:40.316Z,22.08
2023-02-23T21:06:47.654Z,20.55
2023-02-23T21:09:56.117Z,24.52
2023-02-23T21:13:01.614Z,25.60
2023-02-23T21:16:06.863Z,23.10
2023-02-23T21:19:16.229Z,22.85
2023-02-23T21:22:21.132Z,24.38
2023-02-23T21:25:30.295Z,20.85
2023-02-23T21:28:35.658Z,25.13
2023-02-23T21:31:42.038Z,22.45
2023-02-23T21:34:47.113Z,22.75
2023-02-23T21:37:55.331Z,23.67
2023-02-23T21:41:02.920Z,20.42
2023-02-23T21:44:09.167Z,21.00
2023-02-23T21:47:15.681Z,25.42
2023-02-23T21:50:22.216Z,22.40
2023-02-23T21:53:27.093Z,24.75
2023-02-23T21:56:36.885Z,24.58
2023-02-23T21:59:42.075Z,24.92
2023-02-23T22:02:49.883Z,22.75
2023-02-23T22:05:55.053Z,20.40
2023-02-23T22:09:00.478Z,24.65
2023-02-23T22:12:08.373Z,20.05
2023-02-23T22:15:15.756Z,27.52
2023-02-23T22:18:24.338Z,22.45
2023-02-23T22:21:33.801Z,17.58
2023-02-23T22:24:40.209Z,24.52
2023-02-23T22:27:47.988Z,22.90
2023-02-23T22:30:53.414Z,20.65
2023-02-23T22:33:59.669Z,21.13
2023-02-23T22:37:04.475Z,25.38
2023-02-23T22:40:13.751Z,21.58
2023-02-23T22:43:22.170Z,21.60
2023-02-23T22:46:28.165Z,22.20
2023-02-23T22:49:33.101Z,22.13
2023-02-23T22:52:38.304Z,23.65
2023-02-23T22:55:49.025Z,24.08
2023-02-23T22:59:06.118Z,22.95
2023-02-23T23:02:12.672Z,20.42
2023-02-23T23:05:21.790Z,24.63
2023-02-23T23:08:29.421Z,22.25
2023-02-23T23:11:36.386Z,21.35
2023-02-23T23:14:44.248Z,22.73
2023-02-23T23:17:53.637Z,22.10
2023-02-23T23:20:59.627Z,21.85
2023-02-23T23:24:06.572Z,22.75
2023-02-23T23:27:11.795Z,22.15
2023-02-23T23:30:21.252Z,17.50
2023-02-23T23:33:27.084Z,19.15
2023-02-23T23:36:33.044Z,21.50
2023-02-23T23:39:37.899Z,20.30
2023-02-23T23:42:46.644Z,19.60
2023-02-23T23:45:54.600Z,17.90
2023-02-23T23:49:02.814Z,19.95
2023-02-23T23:52:08.365Z,20.20
2023-02-23T23:55:14.847Z,22.38
2023-02-23T23:58:19.669Z,24.65
